createdAt,value
2024-02-06T00:02:21.042Z,13.00
2024-02-06T00:04:48.427Z,12.47
2024-02-06T00:07:23.728Z,12.17
2024-02-06T00:09:56.705Z,12.70
2024-02-06T00:12:24.033Z,12.33
2024-02-06T00:14:51.243Z,12.67
2024-02-06T00:17:18.460Z,12.30
2024-02-06T00:19:45.905Z,13.27
2024-02-06T00:22:13.141Z,12.90
2024-02-06T00:24:40.313Z,13.03
2024-02-06T00:27:07.569Z,12.60
2024-02-06T00:29:34.783Z,12.37
2024-02-06T00:32:02.016Z,12.77
2024-02-06T00:34:29.368Z,13.07
2024-02-06T00:36:56.704Z,12.77
2024-02-06T00:39:23.971Z,12.60
2024-02-06T00:41:51.116Z,12.70
2024-02-06T00:44:20.619Z,12.53
2024-02-06T00:46:47.978Z,12.53
2024-02-06T00:49:15.747Z,12.70
2024-02-06T00:51:43.918Z,12.00
2024-02-06T00:54:11.131Z,12.23
2024-02-06T00:56:38.383Z,12.03
2024-02-06T00:59:05.587Z,12.47
2024-02-06T01:01:32.856Z,12.07
2024-02-06T01:04:00.158Z,12.20
2024-02-06T01:06:27.457Z,12.10
2024-02-06T01:08:54.881Z,11.90
2024-02-06T01:11:22.435Z,12.07
2024-02-06T01:13:49.654Z,11.80
2024-02-06T01:16:16.840Z,12.20
2024-02-06T01:18:44.025Z,12.27
2024-02-06T01:21:11.324Z,12.40
2024-02-06T01:23:38.506Z,12.37
2024-02-06T01:26:06.071Z,12.00
2024-02-06T01:28:33.432Z,11.70
2024-02-06T01:31:00.762Z,12.10
2024-02-06T01:33:28.146Z,11.87
2024-02-06T01:35:55.384Z,11.47
2024-02-06T01:38:23.646Z,11.60
2024-02-06T01:40:51.075Z,11.90
2024-02-06T01:43:18.340Z,11.50
2024-02-06T01:45:45.609Z,11.77
2024-02-06T01:48:14.520Z,11.80
2024-02-06T01:50:43.149Z,12.50
2024-02-06T01:53:10.455Z,12.20
2024-02-06T01:55:37.835Z,12.43
2024-02-06T01:58:05.937Z,11.97
2024-02-06T02:00:34.752Z,11.90
2024-02-06T02:03:02.692Z,12.20
2024-02-06T02:05:31.412Z,11.40
2024-02-06T02:07:58.852Z,12.00
2024-02-06T02:10:26.196Z,11.70
2024-02-06T02:12:53.388Z,11.90
2024-02-06T02:15:20.607Z,12.30
2024-02-06T02:17:53.889Z,11.80
2024-02-06T02:20:21.271Z,11.40
2024-02-06T02:22:48.434Z,11.73
2024-02-06T02:25:15.868Z,11.80
2024-02-06T02:27:43.802Z,12.27
2024-02-06T02:30:12.124Z,12.23
2024-02-06T02:32:39.818Z,11.73
2024-02-06T02:35:07.275Z,11.70
2024-02-06T02:37:34.658Z,11.90
2024-02-06T02:40:01.912Z,11.90
2024-02-06T02:42:29.166Z,11.77
2024-02-06T02:44:56.303Z,12.20
2024-02-06T02:47:23.641Z,11.83
2024-02-06T02:49:50.944Z,11.47
2024-02-06T02:52:18.188Z,11.73
2024-02-06T02:54:45.520Z,11.90
2024-02-06T02:57:12.718Z,12.00
2024-02-06T02:59:40.091Z,11.70
2024-02-06T03:02:07.664Z,11.53
2024-02-06T03:04:34.909Z,11.77
2024-02-06T03:07:02.142Z,12.07
2024-02-06T03:09:29.416Z,12.50
2024-02-06T03:11:56.620Z,12.80
2024-02-06T03:14:23.900Z,12.43
2024-02-06T03:16:51.109Z,12.50
2024-02-06T03:19:18.560Z,12.60
2024-02-06T03:21:45.803Z,12.37
2024-02-06T03:24:13.102Z,12.60
2024-02-06T03:26:40.444Z,12.50
2024-02-06T03:29:07.774Z,12.80
2024-02-06T03:31:34.998Z,12.50
2024-02-06T03:34:02.400Z,12.63
2024-02-06T03:36:29.572Z,12.30
2024-02-06T03:38:56.791Z,12.70
2024-02-06T03:41:23.984Z,12.83
2024-02-06T03:43:51.224Z,12.60
2024-02-06T03:46:18.429Z,12.60
2024-02-06T03:48:45.738Z,12.87
2024-02-06T03:51:12.913Z,12.37
2024-02-06T03:53:40.127Z,12.50
2024-02-06T03:56:07.503Z,12.70
2024-02-06T03:58:34.842Z,12.50
2024-02-06T04:01:02.274Z,12.67
2024-02-06T04:03:29.550Z,12.70
2024-02-06T04:05:57.051Z,12.43
2024-02-06T04:08:24.336Z,12.70
2024-02-06T04:10:51.548Z,12.73
2024-02-06T04:13:18.796Z,12.50
2024-02-06T04:15:45.983Z,12.67
2024-02-06T04:18:13.426Z,12.93
2024-02-06T04:20:41.140Z,12.80
2024-02-06T04:23:08.425Z,12.83
2024-02-06T04:25:35.725Z,12.73
2024-02-06T04:28:02.925Z,12.60
2024-02-06T04:30:30.037Z,13.07
2024-02-06T04:32:57.393Z,13.00
2024-02-06T04:35:24.620Z,12.83
2024-02-06T04:37:51.802Z,13.00
2024-02-06T04:40:21.870Z,13.30
2024-02-06T04:42:50.832Z,12.77
2024-02-06T04:45:18.136Z,12.80
2024-02-06T04:47:45.571Z,12.83
2024-02-06T04:50:12.983Z,13.00
2024-02-06T04:52:41.586Z,12.70
2024-02-06T04:55:11.179Z,12.80
2024-02-06T04:57:38.393Z,12.47
2024-02-06T05:00:06.564Z,12.87
2024-02-06T05:02:33.949Z,12.80
2024-02-06T05:05:01.160Z,13.23
2024-02-06T05:07:28.577Z,13.30
2024-02-06T05:09:56.154Z,12.73
2024-02-06T05:12:24.196Z,13.23
2024-02-06T05:14:52.210Z,13.40
2024-02-06T05:17:20.403Z,13.03
2024-02-06T05:19:47.691Z,12.93
2024-02-06T05:22:15.073Z,13.50
2024-02-06T05:24:42.908Z,13.17
2024-02-06T05:27:10.345Z,13.50
2024-02-06T05:29:38.280Z,13.60
2024-02-06T05:32:05.802Z,13.47
2024-02-06T05:34:33.170Z,13.53
2024-02-06T05:37:00.533Z,13.40
2024-02-06T05:39:27.721Z,13.63
2024-02-06T05:41:55.025Z,13.03
2024-02-06T05:44:22.296Z,13.03
2024-02-06T05:46:49.629Z,13.83
2024-02-06T05:49:16.923Z,13.20
2024-02-06T05:51:44.184Z,13.20
2024-02-06T05:54:11.861Z,13.60
2024-02-06T05:56:39.005Z,13.80
2024-02-06T05:59:06.260Z,13.67
2024-02-06T06:01:33.534Z,13.90
2024-02-06T06:04:01.353Z,14.30
2024-02-06T06:06:28.756Z,13.77
2024-02-06T06:08:56.894Z,13.97
2024-02-06T06:11:24.095Z,13.87
2024-02-06T06:13:51.392Z,13.93
2024-02-06T06:16:18.634Z,13.30
2024-02-06T06:18:45.947Z,13.73
2024-02-06T06:21:13.174Z,13.80
2024-02-06T06:23:40.313Z,13.80
2024-02-06T06:26:08.261Z,13.70
2024-02-06T06:28:37.573Z,14.20
2024-02-06T06:31:07.176Z,14.07
2024-02-06T06:33:34.607Z,14.07
2024-02-06T06:36:01.897Z,14.07
2024-02-06T06:38:29.021Z,13.80
2024-02-06T06:40:56.367Z,13.73
2024-02-06T06:43:24.961Z,12.93
2024-02-06T06:45:53.577Z,13.20
2024-02-06T06:48:20.811Z,13.20
2024-02-06T06:50:48.215Z,13.10
2024-02-06T06:53:15.332Z,13.80
2024-02-06T06:55:42.555Z,13.50
2024-02-06T06:58:10.433Z,14.10
2024-02-06T07:00:37.735Z,14.20
2024-02-06T07:03:05.163Z,14.03
2024-02-06T07:05:33.813Z,13.67
2024-02-06T07:08:01.029Z,13.90
2024-02-06T07:10:28.264Z,13.50
2024-02-06T07:12:55.527Z,13.90
2024-02-06T07:15:22.704Z,13.97
2024-02-06T07:17:49.932Z,14.00
2024-02-06T07:20:17.341Z,13.87
2024-02-06T07:22:44.743Z,13.17
2024-02-06T07:25:12.005Z,13.90
2024-02-06T07:27:39.714Z,14.10
2024-02-06T07:30:07.394Z,14.40
2024-02-06T07:32:34.749Z,13.73
2024-02-06T07:35:02.238Z,14.13
2024-02-06T07:37:29.653Z,13.90
2024-02-06T07:39:56.877Z,14.00
2024-02-06T07:42:24.102Z,14.17
2024-02-06T07:44:51.265Z,13.90
2024-02-06T07:47:18.441Z,14.03
2024-02-06T07:49:46.131Z,14.30
2024-02-06T07:52:14.161Z,13.73
2024-02-06T07:54:42.238Z,13.50
2024-02-06T07:57:09.741Z,13.77
2024-02-06T07:59:37.252Z,13.80
2024-02-06T08:02:05.068Z,13.53
2024-02-06T08:04:32.902Z,13.90
2024-02-06T08:07:00.636Z,13.80
2024-02-06T08:09:27.945Z,14.07
2024-02-06T08:11:56.880Z,12.80
2024-02-06T08:14:25.307Z,13.50
2024-02-06T08:16:52.582Z,13.53
2024-02-06T08:19:19.912Z,13.33
2024-02-06T08:21:47.150Z,13.77
2024-02-06T08:24:14.290Z,13.63
2024-02-06T08:26:41.522Z,13.70
2024-02-06T08:29:08.690Z,13.40
2024-02-06T08:31:36.057Z,13.00
2024-02-06T08:34:03.624Z,13.10
2024-02-06T08:36:30.949Z,13.20
2024-02-06T08:38:58.402Z,13.40
2024-02-06T08:41:30.653Z,13.53
2024-02-06T08:43:58.167Z,13.93
2024-02-06T08:46:25.679Z,13.43
2024-02-06T08:48:54.083Z,14.03
2024-02-06T08:51:22.437Z,13.73
2024-02-06T08:53:49.643Z,13.97
2024-02-06T08:56:17.087Z,13.97
2024-02-06T08:58:44.786Z,13.60
2024-02-06T09:01:13.089Z,13.17
2024-02-06T09:03:43.486Z,13.93
2024-02-06T09:06:11.332Z,14.17
2024-02-06T09:08:41.215Z,13.43
2024-02-06T09:11:09.337Z,13.83
2024-02-06T09:13:36.572Z,14.00
2024-02-06T09:16:04.183Z,13.50
2024-02-06T09:18:32.036Z,14.17
2024-02-06T09:20:59.324Z,14.23
2024-02-06T09:23:26.442Z,13.50
2024-02-06T09:25:53.626Z,14.47
2024-02-06T09:28:20.889Z,13.83
2024-02-06T09:30:48.424Z,14.53
2024-02-06T09:33:15.684Z,14.20
2024-02-06T09:35:43.044Z,13.63
2024-02-06T09:38:10.265Z,13.90
2024-02-06T09:40:40.543Z,13.90
2024-02-06T09:43:10.203Z,13.90
2024-02-06T09:45:37.832Z,14.23
2024-02-06T09:48:05.645Z,14.67
2024-02-06T09:50:32.974Z,14.27
2024-02-06T09:53:03.547Z,14.70
2024-02-06T09:55:31.410Z,13.90
2024-02-06T09:58:00.453Z,14.30
2024-02-06T10:00:28.523Z,13.90
2024-02-06T10:03:00.678Z,13.03
2024-02-06T10:05:33.102Z,13.33
2024-02-06T10:08:01.058Z,14.03
2024-02-06T10:10:29.155Z,14.23
2024-02-06T10:12:56.643Z,14.17
2024-02-06T10:15:27.238Z,13.37
2024-02-06T10:17:57.921Z,13.90
2024-02-06T10:20:25.122Z,13.97
2024-02-06T10:22:52.587Z,14.00
2024-02-06T10:25:20.176Z,13.10
2024-02-06T10:27:47.465Z,13.90
2024-02-06T10:30:14.945Z,13.60
2024-02-06T10:32:42.303Z,13.53
2024-02-06T10:35:10.823Z,13.80
2024-02-06T10:37:43.358Z,13.40
2024-02-06T10:40:12.969Z,14.00
2024-02-06T10:45:19.035Z,13.47
2024-02-06T10:47:57.253Z,13.47
2024-02-06T10:50:25.029Z,13.10
2024-02-06T10:52:52.324Z,13.13
2024-02-06T10:55:19.553Z,12.70
2024-02-06T10:57:47.923Z,13.07
2024-02-06T11:00:21.708Z,13.40
2024-02-06T11:02:53.534Z,12.57
2024-02-06T11:05:27.853Z,12.63
2024-02-06T11:08:04.639Z,12.87
2024-02-06T11:10:37.779Z,12.87
2024-02-06T11:13:08.920Z,12.80
2024-02-06T11:15:41.335Z,12.70
2024-02-06T11:18:12.517Z,12.80
2024-02-06T11:20:44.138Z,12.97
2024-02-06T11:23:14.808Z,12.90
2024-02-06T11:25:46.657Z,13.00
2024-02-06T11:28:15.666Z,13.20
2024-02-06T11:30:46.524Z,12.80
2024-02-06T11:33:16.353Z,12.60
2024-02-06T11:35:43.768Z,12.13
2024-02-06T11:38:13.616Z,12.27
2024-02-06T11:40:43.094Z,12.30
2024-02-06T11:43:10.607Z,12.17
2024-02-06T11:45:39.470Z,12.07
2024-02-06T11:48:09.980Z,11.70
2024-02-06T11:50:45.285Z,12.27
2024-02-06T11:53:16.959Z,12.30
2024-02-06T11:55:45.762Z,12.27
2024-02-06T11:58:14.735Z,12.43
2024-02-06T12:00:42.523Z,12.73
2024-02-06T12:03:10.317Z,12.80
2024-02-06T12:05:44.010Z,13.10
2024-02-06T12:08:22.924Z,13.30
2024-02-06T12:10:51.082Z,12.67
2024-02-06T12:13:19.454Z,13.00
2024-02-06T12:15:46.997Z,13.30
2024-02-06T12:18:16.184Z,12.97
2024-02-06T12:20:44.150Z,13.13
2024-02-06T12:23:13.770Z,13.07
2024-02-06T12:25:43.122Z,12.90
2024-02-06T12:28:17.237Z,12.70
2024-02-06T12:30:51.210Z,12.47
2024-02-06T12:33:19.675Z,12.60
2024-02-06T12:35:48.182Z,12.60
2024-02-06T12:38:15.535Z,12.53
2024-02-06T12:40:47.676Z,12.80
2024-02-06T12:43:18.131Z,12.70
2024-02-06T12:45:45.912Z,12.90
2024-02-06T12:48:13.609Z,13.07
2024-02-06T12:50:43.309Z,12.73
2024-02-06T12:53:10.990Z,12.57
2024-02-06T12:55:41.746Z,12.60
2024-02-06T12:58:12.425Z,12.53
2024-02-06T13:00:40.208Z,12.83
2024-02-06T13:03:09.038Z,12.83
2024-02-06T13:05:37.382Z,12.57
2024-02-06T13:08:10.410Z,13.17
2024-02-06T13:10:39.247Z,13.03
2024-02-06T13:13:07.690Z,13.07
2024-02-06T13:15:37.419Z,12.90
2024-02-06T13:18:06.107Z,13.00
2024-02-06T13:20:38.964Z,13.07
2024-02-06T13:23:17.877Z,12.50
2024-02-06T13:25:45.339Z,12.60
2024-02-06T13:28:13.939Z,13.23
2024-02-06T13:30:41.245Z,12.97
2024-02-06T13:33:09.733Z,12.73
2024-02-06T13:35:37.366Z,12.53
2024-02-06T13:38:05.721Z,12.73
2024-02-06T13:40:33.511Z,12.17
2024-02-06T13:43:00.964Z,12.20
2024-02-06T13:45:28.608Z,12.57
2024-02-06T13:47:55.867Z,12.53
2024-02-06T13:50:23.469Z,12.17
2024-02-06T13:52:50.883Z,12.07
2024-02-06T13:55:18.462Z,12.20
2024-02-06T13:57:47.405Z,12.20
2024-02-06T14:00:15.616Z,12.17
2024-02-06T14:02:44.482Z,12.80
2024-02-06T14:05:12.693Z,12.80
2024-02-06T14:07:40.271Z,12.57
2024-02-06T14:10:08.124Z,12.83
2024-02-06T14:12:44.149Z,12.00
2024-02-06T14:15:17.766Z,12.30
2024-02-06T14:17:46.987Z,11.67
2024-02-06T14:20:16.901Z,12.20
2024-02-06T14:22:45.542Z,11.90
2024-02-06T14:25:13.070Z,11.77
2024-02-06T14:27:40.419Z,12.43
2024-02-06T14:30:08.763Z,12.27
2024-02-06T14:32:36.174Z,12.00
2024-02-06T14:35:04.648Z,12.40
2024-02-06T14:37:32.012Z,12.40
2024-02-06T14:39:59.437Z,12.47
2024-02-06T14:42:26.695Z,13.20
2024-02-06T14:44:53.893Z,12.50
2024-02-06T14:47:21.222Z,12.73
2024-02-06T14:49:49.089Z,12.87
2024-02-06T14:52:16.358Z,12.67
2024-02-06T14:54:43.679Z,12.93
2024-02-06T14:57:11.057Z,12.73
2024-02-06T14:59:38.455Z,12.73
2024-02-06T15:02:06.468Z,12.40
2024-02-06T15:04:33.883Z,12.70
2024-02-06T15:07:01.608Z,12.37
2024-02-06T15:09:29.211Z,12.50
2024-02-06T15:11:56.395Z,12.60
2024-02-06T15:14:23.586Z,12.50
2024-02-06T15:16:50.997Z,12.00
2024-02-06T15:19:18.451Z,12.27
2024-02-06T15:21:45.784Z,12.20
2024-02-06T15:24:13.136Z,12.47
2024-02-06T15:26:40.773Z,12.60
2024-02-06T15:29:08.163Z,11.87
2024-02-06T15:31:35.770Z,12.30
2024-02-06T15:34:03.227Z,12.20
2024-02-06T15:36:30.542Z,12.33
2024-02-06T15:38:57.744Z,12.20
2024-02-06T15:41:25.381Z,11.90
2024-02-06T15:43:52.714Z,12.40
2024-02-06T15:46:20.048Z,11.60
2024-02-06T15:48:48.052Z,12.00
2024-02-06T15:51:15.671Z,12.20
2024-02-06T15:53:42.972Z,11.93
2024-02-06T15:56:10.343Z,11.70
2024-02-06T15:58:38.158Z,11.90
2024-02-06T16:01:05.669Z,11.07
2024-02-06T16:03:33.368Z,11.50
2024-02-06T16:06:01.758Z,11.40
2024-02-06T16:08:29.015Z,11.97
2024-02-06T16:10:56.532Z,11.90
2024-02-06T16:13:24.541Z,11.80
2024-02-06T16:15:52.063Z,11.60
2024-02-06T16:18:19.789Z,11.73
2024-02-06T16:20:47.854Z,11.80
2024-02-06T16:23:15.074Z,11.83
2024-02-06T16:25:42.445Z,12.10
2024-02-06T16:28:09.880Z,12.27
2024-02-06T16:30:37.134Z,11.87
2024-02-06T16:33:05.427Z,12.03
2024-02-06T16:35:34.661Z,12.03
2024-02-06T16:38:03.566Z,11.47
2024-02-06T16:40:30.818Z,11.67
2024-02-06T16:42:58.110Z,12.10
2024-02-06T16:45:25.278Z,11.73
2024-02-06T16:47:52.581Z,11.90
2024-02-06T16:50:19.910Z,11.40
2024-02-06T16:52:47.540Z,11.10
2024-02-06T16:55:15.044Z,11.60
2024-02-06T16:57:42.324Z,11.33
2024-02-06T17:00:11.025Z,11.70
2024-02-06T17:02:38.574Z,10.97
2024-02-06T17:05:07.641Z,11.30
2024-02-06T17:07:35.027Z,10.80
2024-02-06T17:10:02.974Z,11.10
2024-02-06T17:12:30.416Z,10.80
2024-02-06T17:14:57.665Z,10.87
2024-02-06T17:17:24.969Z,10.80
2024-02-06T17:19:52.305Z,10.50
2024-02-06T17:22:19.697Z,10.67
2024-02-06T17:24:46.960Z,10.70
2024-02-06T17:27:14.379Z,11.00
2024-02-06T17:29:41.486Z,10.67
2024-02-06T17:32:08.910Z,10.63
2024-02-06T17:34:36.470Z,10.60
2024-02-06T17:37:04.873Z,11.13
2024-02-06T17:39:33.293Z,11.07
2024-02-06T17:42:01.117Z,11.17
2024-02-06T17:44:29.547Z,11.50
2024-02-06T17:46:56.808Z,10.73
2024-02-06T17:49:24.908Z,10.80
2024-02-06T17:51:54.884Z,11.30
2024-02-06T17:54:24.109Z,11.33
2024-02-06T17:56:51.255Z,11.00
2024-02-06T17:59:19.658Z,11.43
2024-02-06T18:01:47.442Z,10.80
2024-02-06T18:04:14.860Z,11.03
2024-02-06T18:06:42.828Z,10.90
2024-02-06T18:09:11.020Z,10.90
2024-02-06T18:11:39.296Z,11.23
2024-02-06T18:14:06.587Z,11.37
2024-02-06T18:17:09.429Z,10.97
2024-02-06T18:19:37.073Z,11.20
2024-02-06T18:22:04.699Z,11.10
2024-02-06T18:24:32.301Z,11.20
2024-02-06T18:26:59.898Z,10.80
2024-02-06T18:29:27.209Z,9.90
2024-02-06T18:31:54.606Z,10.13
2024-02-06T18:34:22.061Z,10.30
2024-02-06T18:36:53.278Z,10.43
2024-02-06T18:39:22.859Z,9.93
2024-02-06T18:41:51.537Z,9.70
2024-02-06T18:44:19.539Z,9.83
2024-02-06T18:46:47.183Z,9.67
2024-02-06T18:49:16.090Z,9.87
2024-02-06T18:51:43.431Z,10.10
2024-02-06T18:54:11.488Z,10.57
2024-02-06T18:56:38.750Z,10.40
2024-02-06T18:59:05.924Z,10.50
2024-02-06T19:01:33.230Z,10.07
2024-02-06T19:04:02.697Z,10.50
2024-02-06T19:06:31.559Z,10.50
2024-02-06T19:08:59.134Z,10.70
2024-02-06T19:11:26.291Z,10.43
2024-02-06T19:13:53.610Z,9.97
2024-02-06T19:16:20.859Z,10.73
2024-02-06T19:18:49.378Z,10.87
2024-02-06T19:21:17.514Z,10.73
2024-02-06T19:23:44.671Z,10.50
2024-02-06T19:26:11.913Z,10.03
2024-02-06T19:28:39.436Z,10.60
2024-02-06T19:31:06.789Z,10.67
2024-02-06T19:33:34.287Z,10.30
2024-02-06T19:36:01.587Z,10.70
2024-02-06T19:38:28.796Z,10.73
2024-02-06T19:40:56.038Z,11.43
2024-02-06T19:43:23.286Z,10.87
2024-02-06T19:45:51.058Z,10.70
2024-02-06T19:48:24.314Z,10.80
2024-02-06T19:50:54.284Z,11.40
2024-02-06T19:53:22.124Z,11.57
2024-02-06T19:55:49.777Z,11.13
2024-02-06T19:58:17.504Z,11.13
2024-02-06T20:00:44.813Z,11.00
2024-02-06T20:03:12.111Z,10.90
2024-02-06T20:05:39.655Z,11.07
2024-02-06T20:08:07.571Z,11.03
2024-02-06T20:10:39.718Z,11.20
2024-02-06T20:13:07.429Z,11.50
2024-02-06T20:15:34.933Z,11.27
2024-02-06T20:18:02.629Z,10.83
2024-02-06T20:20:29.917Z,10.97
2024-02-06T20:22:57.703Z,11.47
2024-02-06T20:25:25.052Z,11.20
2024-02-06T20:27:52.275Z,10.93
2024-02-06T20:30:19.416Z,11.60
2024-02-06T20:32:46.746Z,11.20
2024-02-06T20:35:14.051Z,11.33
2024-02-06T20:37:41.408Z,10.77
2024-02-06T20:40:10.223Z,10.90
2024-02-06T20:42:37.592Z,11.50
2024-02-06T20:45:04.998Z,11.27
2024-02-06T20:47:33.669Z,11.07
2024-02-06T20:50:01.056Z,11.50
2024-02-06T20:52:29.039Z,11.30
2024-02-06T20:54:56.347Z,11.23
2024-02-06T20:57:23.909Z,11.37
2024-02-06T20:59:51.064Z,11.40
2024-02-06T21:02:19.066Z,11.87
2024-02-06T21:04:46.464Z,12.43
2024-02-06T21:07:13.886Z,12.43
2024-02-06T21:09:41.472Z,12.27
2024-02-06T21:12:08.801Z,11.80
2024-02-06T21:14:37.590Z,11.40
2024-02-06T21:17:05.148Z,12.03
2024-02-06T21:19:32.457Z,12.10
2024-02-06T21:21:59.724Z,12.00
2024-02-06T21:24:27.131Z,11.77
2024-02-06T21:26:54.668Z,11.80
2024-02-06T21:29:21.947Z,11.93
2024-02-06T21:31:49.862Z,12.40
2024-02-06T21:34:17.656Z,11.77
2024-02-06T21:36:44.959Z,11.70
2024-02-06T21:39:14.644Z,12.23
2024-02-06T21:41:46.438Z,12.53
2024-02-06T21:44:13.880Z,11.73
2024-02-06T21:46:41.150Z,12.50
2024-02-06T21:49:09.013Z,12.10
2024-02-06T21:51:36.247Z,12.57
2024-02-06T21:54:03.660Z,12.73
2024-02-06T21:56:30.962Z,12.33
2024-02-06T21:58:58.193Z,12.40
2024-02-06T22:01:25.624Z,11.77
2024-02-06T22:03:52.877Z,12.10
2024-02-06T22:06:20.416Z,12.53
2024-02-06T22:08:47.860Z,11.70
2024-02-06T22:11:15.516Z,12.40
2024-02-06T22:13:42.957Z,11.10
2024-02-06T22:16:10.223Z,11.50
2024-02-06T22:18:37.835Z,11.30
2024-02-06T22:21:05.545Z,11.83
2024-02-06T22:23:34.373Z,11.80
2024-02-06T22:26:01.617Z,11.77
2024-02-06T22:28:28.914Z,11.73
2024-02-06T22:30:56.113Z,11.40
2024-02-06T22:33:23.809Z,11.83
2024-02-06T22:35:51.137Z,11.60
2024-02-06T22:38:18.673Z,12.30
2024-02-06T22:40:46.816Z,11.80
2024-02-06T22:43:14.204Z,11.63
2024-02-06T22:45:41.401Z,11.70
2024-02-06T22:48:08.834Z,11.60
2024-02-06T22:50:37.846Z,12.20
2024-02-06T22:53:05.207Z,12.10
2024-02-06T22:55:32.470Z,11.90
2024-02-06T22:57:59.695Z,12.07
2024-02-06T23:00:33.752Z,12.10
2024-02-06T23:03:02.093Z,11.50
2024-02-06T23:05:29.894Z,12.20
2024-02-06T23:07:57.540Z,12.60
2024-02-06T23:10:25.118Z,12.63
2024-02-06T23:12:54.988Z,12.27
2024-02-06T23:15:22.278Z,12.33
2024-02-06T23:17:50.044Z,12.30
2024-02-06T23:20:17.793Z,12.37
2024-02-06T23:22:45.275Z,12.13
2024-02-06T23:25:13.605Z,12.27
2024-02-06T23:27:40.841Z,12.30
2024-02-06T23:30:09.573Z,12.20
2024-02-06T23:32:37.424Z,12.10
2024-02-06T23:35:06.081Z,12.50
2024-02-06T23:37:33.307Z,12.33
2024-02-06T23:40:00.659Z,12.13
2024-02-06T23:42:27.833Z,12.30
2024-02-06T23:44:55.013Z,12.37
2024-02-06T23:47:22.603Z,12.20
2024-02-06T23:49:50.382Z,12.00
2024-02-06T23:52:17.706Z,12.33
2024-02-06T23:54:44.917Z,11.90
2024-02-06T23:57:12.164Z,12.40
2024-02-06T23:59:39.345Z,12.07
